Time;durP1;ratioP1;P1;durP2;ratioP2;P2;SDS_P1;SDS_P2;PMS_P1;PMS_P2;Temp;Humidity;BMP_temperature;BMP_pressure;BME280_temperature;BME280_humidity;BME280_pressure;Samples;Min_cycle;Max_cycle;Signal;HPM_P1;HPM_P2
2020/12/27 00:00:43;;;;;;;9.93;7.73;;;;;;;;;;5052496;28;20410;-79
2020/12/27 00:03:09;;;;;;;11.02;7.60;;;;;;;;;;5052110;28;20399;-79
2020/12/27 00:05:35;;;;;;;9.35;7.00;;;;;;;;;;5051354;28;20405;-80
2020/12/27 00:08:01;;;;;;;9.30;7.18;;;;;;;;;;5055832;28;20456;-79
2020/12/27 00:10:27;;;;;;;10.00;7.80;;;;;;;;;;5052146;28;20416;-80
2020/12/27 00:12:53;;;;;;;10.73;7.10;;;;;;;;;;5047328;28;20474;-80
2020/12/27 00:15:19;;;;;;;9.38;6.88;;;;;;;;;;5047114;28;20395;-79
2020/12/27 00:17:45;;;;;;;9.85;7.03;;;;;;;;;;5051312;28;20439;-80
2020/12/27 00:20:11;;;;;;;10.02;7.38;;;;;;;;;;5072167;28;20926;-80
2020/12/27 00:22:37;;;;;;;10.02;7.00;;;;;;;;;;5055882;28;20400;-79
2020/12/27 00:25:03;;;;;;;8.55;6.57;;;;;;;;;;5075864;28;20402;-80
2020/12/27 00:27:29;;;;;;;9.43;6.97;;;;;;;;;;5078591;28;20406;-80
2020/12/27 00:30:01;;;;;;;9.32;7.10;;;;;;;;;;5069720;28;20879;-80
2020/12/27 00:32:30;;;;;;;8.00;6.35;;;;;;;;;;5046249;28;20403;-80
2020/12/27 00:34:56;;;;;;;9.13;6.67;;;;;;;;;;5045671;28;20443;-80
2020/12/27 00:37:22;;;;;;;8.95;6.95;;;;;;;;;;5045031;28;20921;-79
2020/12/27 00:39:54;;;;;;;9.95;7.72;;;;;;;;;;5049112;28;20395;-80
2020/12/27 00:42:21;;;;;;;9.60;7.20;;;;;;;;;;5036654;28;20400;-80
2020/12/27 00:44:47;;;;;;;9.73;6.93;;;;;;;;;;5047751;28;20440;-80
2020/12/27 00:47:13;;;;;;;7.68;6.18;;;;;;;;;;5071570;28;20433;-80
2020/12/27 00:49:39;;;;;;;9.65;6.63;;;;;;;;;;5055806;28;20495;-80
2020/12/27 00:52:05;;;;;;;8.93;6.40;;;;;;;;;;5050115;28;20523;-80
2020/12/27 00:54:31;;;;;;;8.27;6.43;;;;;;;;;;5067142;28;20763;-80
2020/12/27 00:56:57;;;;;;;9.32;6.70;;;;;;;;;;5048109;28;20767;-80
2020/12/27 00:59:23;;;;;;;9.02;6.47;;;;;;;;;;5066731;28;20422;-79
2020/12/27 01:01:54;;;;;;;8.98;6.75;;;;;;;;;;5072509;28;20396;-80
2020/12/27 01:04:20;;;;;;;8.30;6.13;;;;;;;;;;5046205;28;20935;-80
2020/12/27 01:06:45;;;;;;;8.77;6.67;;;;;;;;;;5076000;28;20458;-81
2020/12/27 01:09:11;;;;;;;8.88;6.88;;;;;;;;;;5052114;28;20871;-80
2020/12/27 01:11:37;;;;;;;8.75;6.53;;;;;;;;;;5060620;28;20925;-80
2020/12/27 01:14:03;;;;;;;9.45;7.30;;;;;;;;;;5052667;28;20407;-80
2020/12/27 01:16:29;;;;;;;12.35;7.13;;;;;;;;;;5048592;28;20442;-81
2020/12/27 01:18:55;;;;;;;10.43;7.27;;;;;;;;;;5072515;28;20404;-80
2020/12/27 01:21:22;;;;;;;9.60;6.93;;;;;;;;;;5071402;28;20431;-81
2020/12/27 01:23:48;;;;;;;8.80;7.32;;;;;;;;;;5072558;28;20895;-80
2020/12/27 01:26:14;;;;;;;9.30;7.17;;;;;;;;;;5068120;28;20400;-80
2020/12/27 01:28:40;;;;;;;10.68;7.53;;;;;;;;;;5048963;28;20898;-80
2020/12/27 01:31:06;;;;;;;10.13;7.13;;;;;;;;;;5048952;28;20399;-80
2020/12/27 01:33:32;;;;;;;9.13;6.85;;;;;;;;;;5063789;28;20732;-81
2020/12/27 01:35:58;;;;;;;9.75;6.60;;;;;;;;;;5069012;28;20801;-80
2020/12/27 01:38:24;;;;;;;7.53;6.18;;;;;;;;;;5068595;28;20395;-80
2020/12/27 01:40:50;;;;;;;10.10;6.40;;;;;;;;;;5054079;28;20402;-81
2020/12/27 01:43:16;;;;;;;11.73;6.70;;;;;;;;;;5050903;28;20409;-80
2020/12/27 01:45:42;;;;;;;8.20;6.55;;;;;;;;;;5069913;28;20408;-80
2020/12/27 01:48:12;;;;;;;9.27;6.32;;;;;;;;;;5070642;28;20487;-80
2020/12/27 01:50:38;;;;;;;9.45;6.82;;;;;;;;;;5046370;28;20448;-81
2020/12/27 01:53:04;;;;;;;9.25;6.63;;;;;;;;;;5069356;28;20427;-81
2020/12/27 01:55:32;;;;;;;8.50;6.55;;;;;;;;;;5052414;28;20430;-81
2020/12/27 01:58:01;;;;;;;8.45;6.45;;;;;;;;;;5074377;28;20398;-80
2020/12/27 02:00:27;;;;;;;8.88;6.85;;;;;;;;;;5048869;28;20410;-80
2020/12/27 02:02:53;;;;;;;9.15;6.70;;;;;;;;;;5049883;28;20712;-80
2020/12/27 02:05:19;;;;;;;10.40;6.72;;;;;;;;;;5049222;28;20403;-81
2020/12/27 02:07:45;;;;;;;9.65;6.72;;;;;;;;;;5074679;28;20406;-80
2020/12/27 02:10:12;;;;;;;9.13;7.10;;;;;;;;;;5055138;28;20405;-80
2020/12/27 02:12:37;;;;;;;9.43;7.32;;;;;;;;;;5071995;28;20830;-80
2020/12/27 02:15:04;;;;;;;8.65;6.88;;;;;;;;;;5053746;28;20406;-80
2020/12/27 02:17:30;;;;;;;9.60;6.93;;;;;;;;;;5057441;28;20405;-80
2020/12/27 02:19:56;;;;;;;10.60;7.50;;;;;;;;;;5075677;28;20478;-80
2020/12/27 02:22:22;;;;;;;10.02;7.22;;;;;;;;;;5053519;28;20491;-80
2020/12/27 02:24:49;;;;;;;9.70;7.00;;;;;;;;;;5070317;28;20411;-81
2020/12/27 02:27:15;;;;;;;10.80;7.57;;;;;;;;;;5043092;28;20406;-81
2020/12/27 02:29:41;;;;;;;10.52;7.50;;;;;;;;;;5052959;28;20510;-80
2020/12/27 02:32:07;;;;;;;9.30;7.10;;;;;;;;;;5072114;28;20490;-80
2020/12/27 02:34:33;;;;;;;9.40;7.30;;;;;;;;;;5073598;28;20407;-79
2020/12/27 02:36:59;;;;;;;10.98;7.28;;;;;;;;;;5073694;28;20734;-81
2020/12/27 02:39:24;;;;;;;11.38;8.27;;;;;;;;;;5047462;28;20804;-80
2020/12/27 02:41:51;;;;;;;12.00;7.27;;;;;;;;;;5057885;28;20480;-80
2020/12/27 02:44:17;;;;;;;9.43;6.80;;;;;;;;;;5057388;28;20856;-80
2020/12/27 02:46:43;;;;;;;8.88;6.65;;;;;;;;;;5049044;28;20390;-80
2020/12/27 02:49:09;;;;;;;10.13;7.40;;;;;;;;;;5062179;28;20411;-81
2020/12/27 02:51:35;;;;;;;9.27;7.15;;;;;;;;;;5057282;28;20411;-81
2020/12/27 02:54:01;;;;;;;9.20;6.72;;;;;;;;;;5039949;28;20407;-80
2020/12/27 02:56:28;;;;;;;11.40;7.57;;;;;;;;;;5064302;28;20407;-81
2020/12/27 02:59:02;;;;;;;9.18;6.95;;;;;;;;;;5063494;28;20453;-80
2020/12/27 03:01:27;;;;;;;10.52;7.32;;;;;;;;;;5061974;28;20761;-81
2020/12/27 03:03:53;;;;;;;9.33;6.90;;;;;;;;;;5044285;28;20407;-80
2020/12/27 03:06:19;;;;;;;11.02;6.88;;;;;;;;;;5044446;28;20445;-81
2020/12/27 03:08:45;;;;;;;11.57;6.80;;;;;;;;;;5044094;28;20451;-80
2020/12/27 03:11:12;;;;;;;8.85;6.72;;;;;;;;;;5045823;28;20399;-81
2020/12/27 03:13:38;;;;;;;9.32;6.47;;;;;;;;;;5066718;28;20489;-80
2020/12/27 03:16:05;;;;;;;9.45;6.18;;;;;;;;;;5054690;28;20453;-79
2020/12/27 03:18:31;;;;;;;8.43;5.80;;;;;;;;;;5074149;28;20908;-80
2020/12/27 03:20:57;;;;;;;8.35;5.80;;;;;;;;;;5045968;28;20872;-80
2020/12/27 03:23:23;;;;;;;10.73;5.90;;;;;;;;;;5065931;28;20512;-80
2020/12/27 03:25:50;;;;;;;8.40;6.13;;;;;;;;;;5045140;28;21006;-79
2020/12/27 03:28:16;;;;;;;9.05;5.53;;;;;;;;;;5044094;28;20913;-80
2020/12/27 03:30:42;;;;;;;7.65;5.50;;;;;;;;;;5044149;28;20448;-79
2020/12/27 03:33:08;;;;;;;6.80;5.03;;;;;;;;;;5067048;28;20864;-79
2020/12/27 03:35:34;;;;;;;8.32;5.70;;;;;;;;;;5049405;28;20492;-81
2020/12/27 03:38:00;;;;;;;8.52;5.97;;;;;;;;;;5056686;28;20497;-80
2020/12/27 03:40:26;;;;;;;8.85;5.90;;;;;;;;;;5070701;28;20455;-81
2020/12/27 03:42:52;;;;;;;9.25;5.68;;;;;;;;;;5052169;28;20481;-81
2020/12/27 03:45:18;;;;;;;8.68;5.63;;;;;;;;;;5071221;28;20399;-81
2020/12/27 03:47:44;;;;;;;8.43;5.50;;;;;;;;;;5048157;28;20389;-81
2020/12/27 03:50:10;;;;;;;7.30;4.97;;;;;;;;;;5052026;28;20408;-81
2020/12/27 03:52:36;;;;;;;9.35;5.28;;;;;;;;;;5057466;28;20425;-79
2020/12/27 03:55:02;;;;;;;9.80;5.05;;;;;;;;;;5069021;28;20412;-80
2020/12/27 03:57:28;;;;;;;8.07;5.38;;;;;;;;;;5065915;28;20769;-80
2020/12/27 03:59:54;;;;;;;7.18;5.18;;;;;;;;;;5076265;28;20429;-80
2020/12/27 04:02:20;;;;;;;7.57;4.95;;;;;;;;;;5049666;28;20728;-81
2020/12/27 04:04:46;;;;;;;7.10;4.80;;;;;;;;;;5043813;28;20407;-80
2020/12/27 04:07:12;;;;;;;7.50;4.95;;;;;;;;;;5052035;28;20396;-81
2020/12/27 04:09:38;;;;;;;7.20;4.65;;;;;;;;;;5069518;28;20407;-81
2020/12/27 04:12:04;;;;;;;6.97;4.40;;;;;;;;;;5073605;28;20494;-80
2020/12/27 04:14:30;;;;;;;7.03;4.40;;;;;;;;;;5051325;28;20522;-80
2020/12/27 04:16:56;;;;;;;8.68;4.82;;;;;;;;;;5044082;28;20407;-80
2020/12/27 04:19:22;;;;;;;10.23;4.87;;;;;;;;;;5050863;28;20425;-80
2020/12/27 04:21:48;;;;;;;10.02;5.28;;;;;;;;;;5067954;28;20400;-80
2020/12/27 04:24:14;;;;;;;7.80;4.50;;;;;;;;;;5067614;28;20399;-80
2020/12/27 04:26:40;;;;;;;6.90;4.40;;;;;;;;;;5071831;28;20414;-80
2020/12/27 04:29:07;;;;;;;7.40;4.50;;;;;;;;;;5050081;28;20907;-81
2020/12/27 04:31:33;;;;;;;6.20;4.23;;;;;;;;;;5052769;28;20412;-81
2020/12/27 04:33:59;;;;;;;8.20;4.85;;;;;;;;;;5070189;28;20521;-80
2020/12/27 04:36:25;;;;;;;7.17;4.40;;;;;;;;;;5054509;28;20426;-82
2020/12/27 04:38:51;;;;;;;5.50;3.63;;;;;;;;;;5053662;28;20395;-81
2020/12/27 04:41:18;;;;;;;6.25;4.20;;;;;;;;;;5046401;28;20401;-82
2020/12/27 04:43:45;;;;;;;6.80;4.37;;;;;;;;;;5062872;28;20387;-81
2020/12/27 04:46:12;;;;;;;6.60;3.80;;;;;;;;;;5047826;28;20419;-81
2020/12/27 04:48:38;;;;;;;6.38;4.25;;;;;;;;;;5068605;28;20399;-81
2020/12/27 04:51:05;;;;;;;5.38;3.78;;;;;;;;;;5053905;28;20427;-81
2020/12/27 04:53:33;;;;;;;6.32;3.78;;;;;;;;;;5072571;28;20499;-80
2020/12/27 04:56:00;;;;;;;5.73;3.90;;;;;;;;;;5070386;28;20537;-82
2020/12/27 04:58:28;;;;;;;5.63;3.75;;;;;;;;;;5050964;28;20756;-80
2020/12/27 05:00:54;;;;;;;5.95;3.60;;;;;;;;;;5075391;28;20531;-80
2020/12/27 05:03:20;;;;;;;5.60;3.85;;;;;;;;;;5055768;28;20961;-81
2020/12/27 05:05:50;;;;;;;5.78;3.78;;;;;;;;;;5057965;28;20405;-82
2020/12/27 05:08:16;;;;;;;5.22;3.33;;;;;;;;;;5047893;28;20964;-80
2020/12/27 05:10:42;;;;;;;5.97;3.40;;;;;;;;;;5066427;28;20393;-80
2020/12/27 05:13:08;;;;;;;5.35;3.40;;;;;;;;;;5044058;28;20789;-80
2020/12/27 05:15:35;;;;;;;4.33;2.83;;;;;;;;;;5045367;28;20394;-80
2020/12/27 05:18:01;;;;;;;4.63;3.05;;;;;;;;;;5071381;28;20414;-80
2020/12/27 05:20:27;;;;;;;4.90;3.08;;;;;;;;;;5045363;28;21134;-81
2020/12/27 05:22:58;;;;;;;4.95;2.80;;;;;;;;;;5053398;28;20891;-81
2020/12/27 05:25:25;;;;;;;3.97;2.75;;;;;;;;;;5060460;28;20433;-81
2020/12/27 05:27:54;;;;;;;4.72;2.55;;;;;;;;;;5052327;28;20408;-81
2020/12/27 05:30:25;;;;;;;3.80;2.60;;;;;;;;;;5074987;28;20493;-81
2020/12/27 05:32:51;;;;;;;4.65;2.60;;;;;;;;;;5069320;28;20444;-81
2020/12/27 05:35:17;;;;;;;4.85;2.45;;;;;;;;;;5075904;28;20420;-82
2020/12/27 05:37:43;;;;;;;4.18;2.30;;;;;;;;;;5046649;28;20413;-81
2020/12/27 05:40:09;;;;;;;3.67;2.30;;;;;;;;;;5051345;28;20441;-81
2020/12/27 05:42:35;;;;;;;4.00;2.45;;;;;;;;;;5059418;28;21075;-81
2020/12/27 05:45:20;;;;;;;4.17;2.20;;;;;;;;;;5051768;28;20501;-82
2020/12/27 05:47:46;;;;;;;3.38;1.95;;;;;;;;;;5063548;28;20491;-82
2020/12/27 05:50:17;;;;;;;3.55;1.88;;;;;;;;;;5073602;28;20761;-81
2020/12/27 05:52:47;;;;;;;3.08;1.95;;;;;;;;;;5049360;28;20447;-81
2020/12/27 05:55:16;;;;;;;2.50;1.67;;;;;;;;;;5069501;28;21118;-82
2020/12/27 05:57:43;;;;;;;3.55;1.80;;;;;;;;;;5053500;28;20452;-81
2020/12/27 06:00:10;;;;;;;3.05;1.70;;;;;;;;;;5071265;28;22148;-80
2020/12/27 06:02:42;;;;;;;3.70;1.80;;;;;;;;;;5049063;28;20414;-80
2020/12/27 06:05:26;;;;;;;3.10;1.60;;;;;;;;;;5049277;28;20506;-82
2020/12/27 06:08:00;;;;;;;3.88;1.70;;;;;;;;;;5073491;28;20437;-81
2020/12/27 06:10:30;;;;;;;3.95;1.80;;;;;;;;;;5068446;28;20411;-81
2020/12/27 06:12:59;;;;;;;2.35;1.50;;;;;;;;;;5045586;28;20454;-80
2020/12/27 06:15:26;;;;;;;2.78;1.58;;;;;;;;;;5051424;28;20471;-81
2020/12/27 06:17:52;;;;;;;2.40;1.40;;;;;;;;;;5073520;28;20403;-81
2020/12/27 06:20:19;;;;;;;2.67;1.40;;;;;;;;;;5044725;28;20397;-81
2020/12/27 06:22:48;;;;;;;2.55;1.30;;;;;;;;;;5054735;28;20826;-82
2020/12/27 06:25:14;;;;;;;1.50;1.10;;;;;;;;;;5047223;28;20445;-81
2020/12/27 06:27:40;;;;;;;3.22;1.40;;;;;;;;;;5055095;28;20403;-81
2020/12/27 06:30:08;;;;;;;2.58;1.35;;;;;;;;;;5054662;28;20400;-82
2020/12/27 06:32:36;;;;;;;2.72;1.30;;;;;;;;;;5054577;28;20774;-83
2020/12/27 06:35:06;;;;;;;1.95;1.10;;;;;;;;;;5055427;28;20530;-82
2020/12/27 06:37:41;;;;;;;2.25;1.10;;;;;;;;;;5052937;28;20404;-82
2020/12/27 06:40:07;;;;;;;2.13;1.17;;;;;;;;;;5037598;28;20405;-81
2020/12/27 06:42:33;;;;;;;1.45;1.10;;;;;;;;;;5072651;28;20376;-82
2020/12/27 06:44:59;;;;;;;2.33;1.25;;;;;;;;;;5072349;28;20395;-82
2020/12/27 06:47:45;;;;;;;2.60;1.20;;;;;;;;;;5072775;28;20912;-82
2020/12/27 06:50:16;;;;;;;3.63;1.23;;;;;;;;;;5052451;28;20408;-82
2020/12/27 06:52:42;;;;;;;3.45;1.00;;;;;;;;;;5042358;28;20878;-81
2020/12/27 06:55:08;;;;;;;1.52;1.00;;;;;;;;;;5042416;28;20899;-81
2020/12/27 06:57:44;;;;;;;1.25;0.77;;;;;;;;;;5072141;28;20386;-81
2020/12/27 07:00:29;;;;;;;1.40;1.00;;;;;;;;;;5070284;28;20383;-81
2020/12/27 07:03:11;;;;;;;1.52;0.90;;;;;;;;;;5047044;28;20399;-80
2020/12/27 07:05:38;;;;;;;2.22;1.00;;;;;;;;;;5071725;28;20924;-80
2020/12/27 07:08:04;;;;;;;1.00;0.90;;;;;;;;;;5058061;28;20479;-81
2020/12/27 07:10:31;;;;;;;1.70;0.90;;;;;;;;;;5071613;28;20547;-81
2020/12/27 07:13:16;;;;;;;1.17;0.90;;;;;;;;;;5071621;28;20418;-82
2020/12/27 07:15:46;;;;;;;1.17;0.82;;;;;;;;;;5047397;28;20383;-81
2020/12/27 07:18:12;;;;;;;2.22;0.80;;;;;;;;;;5071683;28;20926;-80
2020/12/27 07:20:43;;;;;;;1.03;0.63;;;;;;;;;;5074202;28;20387;-81
2020/12/27 07:23:16;;;;;;;1.20;0.70;;;;;;;;;;5057280;28;20893;-82
2020/12/27 07:25:43;;;;;;;1.08;0.70;;;;;;;;;;5052624;28;20452;-81
2020/12/27 07:28:09;;;;;;;1.05;0.80;;;;;;;;;;5049536;28;20384;-82
2020/12/27 07:30:35;;;;;;;1.15;0.80;;;;;;;;;;5053642;28;20396;-81
2020/12/27 07:33:07;;;;;;;2.45;0.90;;;;;;;;;;5070992;28;20399;-81
2020/12/27 07:35:35;;;;;;;0.88;0.70;;;;;;;;;;5063567;28;20834;-83
2020/12/27 07:38:01;;;;;;;1.93;0.80;;;;;;;;;;5041117;28;20380;-82
2020/12/27 07:40:38;;;;;;;1.65;0.80;;;;;;;;;;5052347;28;20383;-81
2020/12/27 07:43:08;;;;;;;1.17;0.70;;;;;;;;;;5048330;28;20403;-81
2020/12/27 07:45:34;;;;;;;0.88;0.70;;;;;;;;;;5044235;28;20475;-81
2020/12/27 07:48:00;;;;;;;1.15;0.70;;;;;;;;;;5053251;28;20902;-82
2020/12/27 07:50:26;;;;;;;1.83;0.70;;;;;;;;;;5069784;28;20415;-81
2020/12/27 07:52:57;;;;;;;1.50;0.80;;;;;;;;;;5068287;28;20425;-81
2020/12/27 07:55:30;;;;;;;0.90;0.70;;;;;;;;;;5046601;28;20444;-82
2020/12/27 07:57:57;;;;;;;0.98;0.70;;;;;;;;;;5039271;28;20918;-82
2020/12/27 08:00:28;;;;;;;1.17;0.80;;;;;;;;;;5053215;28;20477;-81
2020/12/27 08:02:54;;;;;;;1.05;0.90;;;;;;;;;;5052118;28;20777;-81
2020/12/27 08:05:20;;;;;;;0.65;0.52;;;;;;;;;;5079711;28;20854;-81
2020/12/27 08:07:47;;;;;;;1.58;0.70;;;;;;;;;;5055164;28;20455;-80
2020/12/27 08:10:20;;;;;;;1.15;0.80;;;;;;;;;;5053126;28;20743;-81
2020/12/27 08:12:50;;;;;;;0.63;0.63;;;;;;;;;;5077057;28;20449;-81
2020/12/27 08:15:16;;;;;;;1.42;0.60;;;;;;;;;;5045242;28;20413;-81
2020/12/27 08:17:55;;;;;;;1.10;0.60;;;;;;;;;;5066829;28;20403;-81
2020/12/27 08:20:21;;;;;;;1.33;0.80;;;;;;;;;;5070368;28;20901;-82
2020/12/27 08:23:00;;;;;;;1.50;0.80;;;;;;;;;;5053016;28;20376;-82
2020/12/27 08:25:27;;;;;;;1.08;0.70;;;;;;;;;;5041048;28;20378;-83
2020/12/27 08:27:54;;;;;;;1.77;0.90;;;;;;;;;;5056806;28;20392;-82
2020/12/27 08:30:20;;;;;;;1.17;0.60;;;;;;;;;;5057237;28;20387;-81
2020/12/27 08:32:46;;;;;;;1.42;0.82;;;;;;;;;;5063403;28;20369;-81
2020/12/27 08:35:25;;;;;;;1.63;0.97;;;;;;;;;;5051123;28;20473;-83
2020/12/27 08:37:55;;;;;;;2.25;0.90;;;;;;;;;;5054252;28;20403;-84
2020/12/27 08:40:21;;;;;;;1.15;0.70;;;;;;;;;;5057474;28;20422;-83
2020/12/27 08:42:48;;;;;;;1.65;1.00;;;;;;;;;;5065450;28;20391;-82
2020/12/27 08:45:19;;;;;;;2.13;1.00;;;;;;;;;;5056717;28;20417;-83
2020/12/27 08:48:10;;;;;;;1.50;0.77;;;;;;;;;;5056762;28;20428;-82
2020/12/27 08:50:37;;;;;;;1.15;0.70;;;;;;;;;;5056471;28;20470;-82
2020/12/27 08:53:07;;;;;;;1.48;0.90;;;;;;;;;;5072421;28;20401;-83
2020/12/27 08:55:34;;;;;;;1.07;0.60;;;;;;;;;;5054845;28;20724;-84
2020/12/27 08:58:00;;;;;;;1.50;0.73;;;;;;;;;;5064791;28;20399;-82
2020/12/27 09:00:32;;;;;;;1.40;0.70;;;;;;;;;;5071082;28;20390;-82
2020/12/27 09:02:59;;;;;;;1.10;0.70;;;;;;;;;;5069406;28;20831;-83
2020/12/27 09:05:26;;;;;;;1.40;0.80;;;;;;;;;;5056579;28;20395;-82
2020/12/27 09:07:52;;;;;;;1.30;0.80;;;;;;;;;;5056132;28;20379;-82
2020/12/27 09:10:22;;;;;;;1.35;0.65;;;;;;;;;;5065430;28;20393;-83
2020/12/27 09:12:57;;;;;;;1.67;0.85;;;;;;;;;;5069425;28;20387;-82
2020/12/27 09:15:24;;;;;;;0.93;0.70;;;;;;;;;;5054099;28;20395;-80
2020/12/27 09:17:54;;;;;;;1.20;0.63;;;;;;;;;;5074579;28;20388;-81
2020/12/27 09:20:22;;;;;;;1.42;0.65;;;;;;;;;;5055656;28;20433;-83
2020/12/27 09:22:48;;;;;;;2.05;0.70;;;;;;;;;;5060666;28;20386;-82
2020/12/27 09:25:16;;;;;;;2.30;0.70;;;;;;;;;;5070338;28;20399;-82
2020/12/27 09:27:42;;;;;;;1.00;0.70;;;;;;;;;;5055819;28;20421;-84
2020/12/27 09:30:08;;;;;;;1.00;0.70;;;;;;;;;;5050932;28;20405;-83
2020/12/27 09:32:34;;;;;;;1.10;0.50;;;;;;;;;;5049146;28;20384;-83
2020/12/27 09:35:01;;;;;;;1.70;0.57;;;;;;;;;;5072995;28;20960;-83
2020/12/27 09:37:32;;;;;;;2.17;0.75;;;;;;;;;;5047396;28;21138;-81
2020/12/27 09:39:58;;;;;;;1.13;0.70;;;;;;;;;;5036748;28;20382;-84
2020/12/27 09:42:24;;;;;;;1.25;0.70;;;;;;;;;;5066938;28;20397;-83
2020/12/27 09:44:51;;;;;;;0.93;0.63;;;;;;;;;;5048434;28;20454;-83
2020/12/27 09:47:21;;;;;;;0.55;0.50;;;;;;;;;;5055146;28;20460;-83
2020/12/27 09:49:58;;;;;;;1.60;0.60;;;;;;;;;;5069666;28;20407;-83
2020/12/27 09:52:24;;;;;;;1.08;0.55;;;;;;;;;;5043923;28;20512;-82
2020/12/27 09:54:50;;;;;;;1.90;0.70;;;;;;;;;;5052205;28;20862;-83
2020/12/27 09:57:17;;;;;;;2.30;1.00;;;;;;;;;;5052599;28;20392;-83
2020/12/27 09:59:43;;;;;;;1.05;0.60;;;;;;;;;;5051650;28;20387;-81
2020/12/27 10:02:09;;;;;;;0.63;0.50;;;;;;;;;;5070989;28;20392;-82
2020/12/27 10:04:35;;;;;;;0.95;0.70;;;;;;;;;;5059543;28;20400;-82
2020/12/27 10:07:01;;;;;;;1.20;0.70;;;;;;;;;;5075909;28;20414;-80
2020/12/27 10:09:27;;;;;;;1.50;0.80;;;;;;;;;;5065238;28;20880;-82
2020/12/27 10:11:53;;;;;;;2.10;0.70;;;;;;;;;;5054784;28;20494;-82
2020/12/27 10:14:19;;;;;;;1.25;0.80;;;;;;;;;;5067359;28;20411;-80
2020/12/27 10:16:46;;;;;;;1.55;0.70;;;;;;;;;;5052328;28;20404;-81
2020/12/27 10:19:12;;;;;;;1.50;0.90;;;;;;;;;;5055371;28;20379;-80
2020/12/27 10:21:38;;;;;;;2.87;1.20;;;;;;;;;;5042548;28;20380;-80
2020/12/27 10:24:04;;;;;;;1.67;0.75;;;;;;;;;;5053701;28;20387;-81
2020/12/27 10:26:30;;;;;;;1.98;0.77;;;;;;;;;;5054827;28;20392;-81
2020/12/27 10:28:56;;;;;;;1.30;0.80;;;;;;;;;;5072819;28;20372;-81
2020/12/27 10:31:21;;;;;;;1.25;0.80;;;;;;;;;;5080494;28;20894;-81
2020/12/27 10:33:47;;;;;;;1.03;0.63;;;;;;;;;;5054225;28;20424;-81
2020/12/27 10:36:13;;;;;;;1.25;0.60;;;;;;;;;;5054251;28;20396;-81
2020/12/27 10:38:39;;;;;;;1.73;0.65;;;;;;;;;;5046238;28;20469;-81
2020/12/27 10:41:07;;;;;;;1.35;0.70;;;;;;;;;;5072801;28;20387;-81
2020/12/27 10:43:32;;;;;;;1.27;0.70;;;;;;;;;;5052162;28;20401;-82
2020/12/27 10:46:03;;;;;;;2.00;0.90;;;;;;;;;;5069265;28;20398;-81
2020/12/27 10:48:30;;;;;;;0.88;0.50;;;;;;;;;;5048928;28;20391;-80
2020/12/27 10:50:56;;;;;;;1.15;0.60;;;;;;;;;;5048259;28;20450;-81
2020/12/27 10:53:22;;;;;;;1.23;0.70;;;;;;;;;;5069979;28;20419;-81
2020/12/27 10:55:48;;;;;;;2.37;0.97;;;;;;;;;;5072381;28;20783;-82
2020/12/27 10:58:14;;;;;;;7.75;3.85;;;;;;;;;;5051716;28;20411;-81
2020/12/27 11:01:11;;;;;;;1.30;0.70;;;;;;;;;;5059418;28;20401;-80
2020/12/27 11:03:39;;;;;;;2.40;0.93;;;;;;;;;;5046467;28;20408;-80
2020/12/27 11:06:05;;;;;;;3.25;1.38;;;;;;;;;;5053517;28;21064;-80
2020/12/27 11:08:31;;;;;;;3.08;1.38;;;;;;;;;;5053605;28;20384;-82
2020/12/27 11:10:57;;;;;;;2.78;1.20;;;;;;;;;;5071837;28;20391;-81
2020/12/27 11:13:23;;;;;;;8.75;1.88;;;;;;;;;;5047862;28;20393;-80
2020/12/27 11:15:49;;;;;;;4.10;1.30;;;;;;;;;;5045762;28;21240;-81
2020/12/27 11:18:15;;;;;;;2.80;1.43;;;;;;;;;;5057652;28;20435;-81
2020/12/27 11:20:41;;;;;;;3.03;1.45;;;;;;;;;;5053805;28;20388;-82
2020/12/27 11:23:07;;;;;;;2.33;1.10;;;;;;;;;;5074229;28;20393;-81
2020/12/27 11:25:33;;;;;;;1.13;0.80;;;;;;;;;;5051720;28;20442;-80
2020/12/27 11:27:59;;;;;;;2.60;1.07;;;;;;;;;;5050463;28;20409;-80
2020/12/27 11:30:25;;;;;;;1.33;0.80;;;;;;;;;;5053383;28;20465;-81
2020/12/27 11:32:51;;;;;;;2.78;1.10;;;;;;;;;;5069893;28;20488;-80
2020/12/27 11:35:17;;;;;;;2.67;1.20;;;;;;;;;;5052924;28;20408;-87
2020/12/27 11:37:44;;;;;;;2.55;0.88;;;;;;;;;;5050243;28;22566;-81
2020/12/27 11:40:10;;;;;;;2.75;1.27;;;;;;;;;;5070933;28;20411;-82
2020/12/27 11:42:37;;;;;;;1.45;0.75;;;;;;;;;;5052906;28;20407;-80
2020/12/27 11:45:04;;;;;;;1.10;0.70;;;;;;;;;;5053599;28;21012;-80
2020/12/27 11:47:30;;;;;;;1.05;0.70;;;;;;;;;;5071239;28;20437;-81
2020/12/27 11:49:56;;;;;;;2.17;0.82;;;;;;;;;;5052822;28;20388;-80
2020/12/27 11:52:25;;;;;;;1.90;1.00;;;;;;;;;;5052496;28;20411;-80
2020/12/27 11:54:54;;;;;;;1.60;0.90;;;;;;;;;;5051602;28;20408;-80
2020/12/27 11:57:20;;;;;;;1.23;0.82;;;;;;;;;;5063023;28;20395;-81
2020/12/27 11:59:46;;;;;;;1.73;0.88;;;;;;;;;;5070514;28;21122;-80
2020/12/27 12:02:12;;;;;;;1.65;0.90;;;;;;;;;;5062699;28;20469;-80
2020/12/27 12:04:38;;;;;;;1.87;1.07;;;;;;;;;;5038111;28;20483;-80
2020/12/27 12:07:04;;;;;;;2.28;0.93;;;;;;;;;;5068935;28;20406;-80
2020/12/27 12:09:30;;;;;;;1.17;0.80;;;;;;;;;;5052100;28;20449;-81
2020/12/27 12:11:56;;;;;;;2.45;1.00;;;;;;;;;;5046755;28;20403;-80
2020/12/27 12:14:22;;;;;;;1.52;0.80;;;;;;;;;;5059552;28;20526;-80
2020/12/27 12:16:48;;;;;;;1.47;0.87;;;;;;;;;;5045453;28;20391;-81
2020/12/27 12:19:14;;;;;;;1.83;1.00;;;;;;;;;;5071891;28;20384;-80
2020/12/27 12:21:40;;;;;;;2.03;0.85;;;;;;;;;;5052247;28;20400;-80
2020/12/27 12:24:06;;;;;;;1.75;0.93;;;;;;;;;;5070985;28;20407;-80
2020/12/27 12:26:32;;;;;;;1.83;0.88;;;;;;;;;;5056231;28;20407;-81
2020/12/27 12:28:59;;;;;;;1.67;0.85;;;;;;;;;;5052499;28;20400;-80
2020/12/27 12:31:26;;;;;;;3.08;1.38;;;;;;;;;;5070583;28;20384;-81
2020/12/27 12:33:52;;;;;;;2.70;1.13;;;;;;;;;;5052285;28;20891;-81
2020/12/27 12:36:18;;;;;;;1.85;1.00;;;;;;;;;;5039918;28;20796;-81
2020/12/27 12:39:00;;;;;;;4.22;1.60;;;;;;;;;;5052427;28;20395;-82
2020/12/27 12:41:27;;;;;;;2.20;1.00;;;;;;;;;;5070788;28;20471;-81
2020/12/27 12:43:53;;;;;;;4.60;1.70;;;;;;;;;;5074442;28;20447;-80
2020/12/27 12:46:21;;;;;;;2.05;1.05;;;;;;;;;;5061416;28;20403;-81
2020/12/27 12:48:48;;;;;;;1.90;1.08;;;;;;;;;;5050913;28;20400;-79
2020/12/27 12:51:14;;;;;;;1.50;0.90;;;;;;;;;;5051031;28;20422;-80
2020/12/27 12:53:40;;;;;;;1.30;0.77;;;;;;;;;;5036504;28;20401;-81
2020/12/27 12:56:09;;;;;;;1.05;0.85;;;;;;;;;;5051787;28;20402;-81
2020/12/27 12:58:35;;;;;;;1.87;0.90;;;;;;;;;;5048434;28;20398;-80
2020/12/27 13:01:01;;;;;;;1.42;0.95;;;;;;;;;;5049403;28;20380;-81
2020/12/27 13:03:27;;;;;;;2.35;1.10;;;;;;;;;;5049690;28;20419;-80
2020/12/27 13:05:53;;;;;;;1.83;1.00;;;;;;;;;;5063552;28;20463;-80
2020/12/27 13:08:19;;;;;;;2.20;1.00;;;;;;;;;;5048947;28;20396;-79
2020/12/27 13:10:45;;;;;;;2.87;0.93;;;;;;;;;;5049812;28;20803;-79
2020/12/27 13:13:12;;;;;;;1.60;0.90;;;;;;;;;;5049888;28;20482;-78
2020/12/27 13:15:38;;;;;;;1.10;0.70;;;;;;;;;;5053556;28;20411;-79
2020/12/27 13:18:04;;;;;;;1.85;1.00;;;;;;;;;;5071558;28;20410;-79
2020/12/27 13:20:29;;;;;;;1.50;0.80;;;;;;;;;;5054089;28;20401;-80
2020/12/27 13:22:55;;;;;;;1.90;0.80;;;;;;;;;;5071711;28;20399;-78
2020/12/27 13:25:21;;;;;;;2.50;1.20;;;;;;;;;;5063409;28;20412;-79
2020/12/27 13:27:47;;;;;;;2.40;1.10;;;;;;;;;;5066079;28;20759;-79
2020/12/27 13:30:14;;;;;;;1.90;1.00;;;;;;;;;;5067455;28;20408;-79
2020/12/27 13:32:40;;;;;;;1.67;0.90;;;;;;;;;;5068584;28;20390;-78
2020/12/27 13:35:07;;;;;;;1.47;0.83;;;;;;;;;;5048416;28;20712;-79
2020/12/27 13:37:33;;;;;;;2.43;0.90;;;;;;;;;;5050987;28;20846;-79
2020/12/27 13:39:59;;;;;;;2.10;1.10;;;;;;;;;;5070682;28;20400;-79
2020/12/27 13:42:25;;;;;;;3.33;1.20;;;;;;;;;;5052153;28;20379;-79
2020/12/27 13:44:51;;;;;;;2.00;1.20;;;;;;;;;;5070958;28;20926;-79
2020/12/27 13:47:17;;;;;;;2.08;1.20;;;;;;;;;;5068746;28;20470;-79
2020/12/27 13:49:43;;;;;;;1.65;0.80;;;;;;;;;;5067537;28;20684;-79
2020/12/27 13:52:09;;;;;;;1.65;0.80;;;;;;;;;;5049646;28;20438;-79
2020/12/27 13:54:35;;;;;;;2.13;0.65;;;;;;;;;;5046007;28;21002;-79
2020/12/27 13:57:01;;;;;;;1.45;0.70;;;;;;;;;;5065479;28;20875;-79
2020/12/27 13:59:27;;;;;;;3.80;1.03;;;;;;;;;;5046446;28;20390;-79
2020/12/27 14:01:53;;;;;;;1.42;1.00;;;;;;;;;;5064337;28;20936;-79
2020/12/27 14:04:19;;;;;;;1.75;0.85;;;;;;;;;;5066888;28;20456;-79
2020/12/27 14:06:45;;;;;;;3.58;1.30;;;;;;;;;;5066386;28;20639;-79
2020/12/27 14:09:11;;;;;;;2.58;0.98;;;;;;;;;;5048058;28;20407;-79
2020/12/27 14:11:40;;;;;;;3.88;1.10;;;;;;;;;;5065743;28;20439;-79
2020/12/27 14:14:07;;;;;;;2.33;0.90;;;;;;;;;;5045353;28;20407;-79
2020/12/27 14:16:33;;;;;;;0.80;0.70;;;;;;;;;;5067290;28;20403;-79
2020/12/27 14:18:59;;;;;;;1.45;0.80;;;;;;;;;;5065395;28;20438;-79
2020/12/27 14:21:25;;;;;;;1.63;0.80;;;;;;;;;;5046495;28;20661;-78
2020/12/27 14:23:52;;;;;;;1.48;0.63;;;;;;;;;;5057176;28;20553;-79
2020/12/27 14:26:18;;;;;;;1.10;0.80;;;;;;;;;;5066691;28;20421;-79
2020/12/27 14:28:45;;;;;;;1.83;1.07;;;;;;;;;;5046409;28;20887;-79
2020/12/27 14:31:11;;;;;;;2.13;0.80;;;;;;;;;;5049133;28;20391;-79
2020/12/27 14:33:38;;;;;;;0.80;0.60;;;;;;;;;;5068266;28;20408;-78
2020/12/27 14:36:09;;;;;;;1.25;0.80;;;;;;;;;;5070194;28;20578;-79
2020/12/27 14:38:38;;;;;;;1.85;1.02;;;;;;;;;;5041871;28;20427;-78
2020/12/27 14:41:05;;;;;;;1.53;0.90;;;;;;;;;;5068238;28;21023;-83
2020/12/27 14:43:31;;;;;;;1.75;0.75;;;;;;;;;;5064178;28;20383;-78